createdAt,value
2018-06-24T00:00:38.480Z,8.35
2018-06-24T00:01:38.417Z,8.41
2018-06-24T00:02:38.391Z,8.47
2018-06-24T00:03:38.577Z,8.47
2018-06-24T00:04:38.561Z,8.47
2018-06-24T00:05:38.418Z,8.47
2018-06-24T00:06:38.398Z,8.49
2018-06-24T00:07:38.414Z,8.46
2018-06-24T00:08:38.490Z,8.44
2018-06-24T00:09:38.403Z,8.43
2018-06-24T00:10:38.438Z,8.44
2018-06-24T00:11:38.424Z,8.4
2018-06-24T00:12:38.405Z,8.41
2018-06-24T00:13:38.440Z,8.41
2018-06-24T00:14:38.490Z,8.37
2018-06-24T00:15:38.443Z,8.4
2018-06-24T00:16:38.571Z,8.4
2018-06-24T00:17:38.416Z,8.42
2018-06-24T00:18:38.502Z,8.37
2018-06-24T00:19:38.457Z,8.34
2018-06-24T00:20:38.405Z,8.38
2018-06-24T00:21:38.508Z,8.38
2018-06-24T00:22:38.415Z,8.35
2018-06-24T00:23:38.451Z,8.37
2018-06-24T00:24:38.427Z,8.31
2018-06-24T00:25:38.426Z,8.28
2018-06-24T00:26:38.413Z,8.3
2018-06-24T00:27:38.413Z,8.26
2018-06-24T00:28:38.475Z,8.37
2018-06-24T00:29:38.440Z,8.42
2018-06-24T00:30:38.536Z,8.43
2018-06-24T00:31:38.582Z,8.37
2018-06-24T00:32:38.411Z,8.31
2018-06-24T00:33:38.394Z,8.42
2018-06-24T00:34:38.542Z,8.43
2018-06-24T00:35:38.436Z,8.45
2018-06-24T00:36:38.412Z,8.33
2018-06-24T00:37:38.407Z,8.41
2018-06-24T00:38:38.441Z,8.33
2018-06-24T00:39:38.430Z,8.33
2018-06-24T00:40:38.428Z,8.34
2018-06-24T00:41:38.450Z,8.41
2018-06-24T00:42:38.421Z,8.28
2018-06-24T00:43:38.461Z,8.34
2018-06-24T00:44:38.413Z,8.32
2018-06-24T00:45:38.428Z,8.49
2018-06-24T00:46:38.436Z,8.43
2018-06-24T00:47:38.446Z,8.48
2018-06-24T00:48:38.443Z,8.46
2018-06-24T00:49:38.430Z,8.47
2018-06-24T00:50:38.446Z,8.46
2018-06-24T00:51:38.406Z,8.47
2018-06-24T00:52:38.419Z,8.47
2018-06-24T00:53:38.540Z,8.49
2018-06-24T00:54:38.419Z,8.51
2018-06-24T00:55:38.432Z,8.5
2018-06-24T00:56:38.415Z,8.5
2018-06-24T00:57:38.452Z,8.49
2018-06-24T00:58:38.416Z,8.47
2018-06-24T00:59:38.453Z,8.49
2018-06-24T01:00:38.469Z,8.48
2018-06-24T01:01:38.430Z,8.46
2018-06-24T01:02:38.448Z,8.45
2018-06-24T01:03:38.425Z,8.47
2018-06-24T01:04:38.603Z,8.46
2018-06-24T01:05:38.447Z,8.46
2018-06-24T01:06:38.424Z,8.45
2018-06-24T01:07:38.426Z,8.43
2018-06-24T01:08:38.419Z,8.36
2018-06-24T01:09:38.436Z,8.36
2018-06-24T01:10:38.460Z,8.35
2018-06-24T01:11:38.428Z,8.34
2018-06-24T01:12:38.443Z,8.4
2018-06-24T01:13:38.510Z,8.45
2018-06-24T01:14:38.437Z,8.41
2018-06-24T01:15:38.509Z,8.41
2018-06-24T01:16:38.432Z,8.36
2018-06-24T01:17:38.435Z,8.44
2018-06-24T01:18:38.469Z,8.45
2018-06-24T01:19:38.450Z,8.53
2018-06-24T01:20:38.441Z,8.4
2018-06-24T01:21:38.441Z,8.42
2018-06-24T01:22:38.436Z,8.36
2018-06-24T01:23:38.604Z,8.41
2018-06-24T01:24:38.556Z,8.52
2018-06-24T01:25:38.450Z,8.49
2018-06-24T01:26:38.469Z,8.38
2018-06-24T01:27:38.465Z,8.38
2018-06-24T01:28:38.583Z,8.46
2018-06-24T01:29:38.426Z,8.36
2018-06-24T01:30:38.481Z,8.5
2018-06-24T01:31:38.434Z,8.49
2018-06-24T01:32:38.424Z,8.44
2018-06-24T01:33:38.516Z,8.5
2018-06-24T01:34:38.603Z,8.43
2018-06-24T01:35:38.502Z,8.46
2018-06-24T01:36:38.441Z,8.46
2018-06-24T01:37:38.628Z,8.46
2018-06-24T01:38:38.504Z,8.47
2018-06-24T01:39:38.428Z,8.48
2018-06-24T01:40:38.448Z,8.49
2018-06-24T01:41:38.450Z,8.45
2018-06-24T01:42:38.455Z,8.39
2018-06-24T01:43:38.464Z,8.49
2018-06-24T01:44:38.578Z,8.5
2018-06-24T01:45:38.483Z,8.49
2018-06-24T01:46:38.473Z,8.44
2018-06-24T01:47:38.833Z,8.52
2018-06-24T01:48:38.479Z,8.5
2018-06-24T01:49:38.476Z,8.45
2018-06-24T01:50:38.453Z,8.45
2018-06-24T01:51:38.454Z,8.43
2018-06-24T01:52:38.730Z,8.37
2018-06-24T01:53:38.480Z,8.46
2018-06-24T01:54:38.653Z,8.45
2018-06-24T01:55:38.491Z,8.4
2018-06-24T01:56:38.605Z,8.36
2018-06-24T01:57:38.527Z,8.39
2018-06-24T01:58:38.517Z,8.38
2018-06-24T01:59:38.475Z,8.35
2018-06-24T02:00:38.462Z,8.41
2018-06-24T02:01:38.452Z,8.46
2018-06-24T02:02:38.457Z,8.41
2018-06-24T02:03:38.453Z,8.44
2018-06-24T02:04:38.466Z,8.45
2018-06-24T02:05:38.475Z,8.53
2018-06-24T02:06:38.471Z,8.48
2018-06-24T02:07:38.469Z,8.48
2018-06-24T02:08:38.458Z,8.46
2018-06-24T02:09:38.466Z,8.44
2018-06-24T02:10:38.465Z,8.42
2018-06-24T02:11:38.532Z,8.42
2018-06-24T02:12:38.455Z,8.47
2018-06-24T02:13:38.477Z,8.44
2018-06-24T02:14:38.451Z,8.41
2018-06-24T02:15:38.648Z,8.46
2018-06-24T02:16:38.646Z,8.49
2018-06-24T02:17:38.471Z,8.45
2018-06-24T02:18:38.541Z,8.42
2018-06-24T02:19:38.498Z,8.51
2018-06-24T02:20:38.518Z,8.39
2018-06-24T02:21:38.471Z,8.44
2018-06-24T02:22:38.475Z,8.49
2018-06-24T02:23:38.625Z,8.41
2018-06-24T02:24:38.517Z,8.51
2018-06-24T02:25:38.500Z,8.52
2018-06-24T02:26:38.464Z,8.5
2018-06-24T02:27:38.545Z,8.48
2018-06-24T02:28:38.686Z,8.5
2018-06-24T02:29:38.568Z,8.47
2018-06-24T02:30:38.526Z,8.48
2018-06-24T02:31:38.507Z,8.48
2018-06-24T02:32:38.544Z,8.53
2018-06-24T02:33:38.597Z,8.47
2018-06-24T02:34:38.468Z,8.45
2018-06-24T02:35:38.569Z,8.45
2018-06-24T02:36:38.508Z,8.41
2018-06-24T02:37:38.489Z,8.44
2018-06-24T02:38:38.478Z,8.44
2018-06-24T02:39:38.542Z,8.44
2018-06-24T02:40:38.483Z,8.45
2018-06-24T02:41:38.490Z,8.44
2018-06-24T02:42:38.668Z,8.44
2018-06-24T02:43:38.505Z,8.4
2018-06-24T02:44:38.631Z,8.36
2018-06-24T02:45:38.596Z,8.38
2018-06-24T02:46:38.506Z,8.43
2018-06-24T02:47:38.820Z,8.39
2018-06-24T02:48:38.831Z,8.37
2018-06-24T02:49:38.603Z,8.35
2018-06-24T02:50:38.622Z,8.4
2018-06-24T02:51:38.540Z,8.37
2018-06-24T02:52:38.574Z,8.4
2018-06-24T02:53:38.980Z,8.42
2018-06-24T02:54:38.488Z,8.35
2018-06-24T02:55:38.498Z,8.37
2018-06-24T02:56:38.505Z,8.41
2018-06-24T02:57:38.506Z,8.43
2018-06-24T02:58:38.543Z,8.44
2018-06-24T02:59:38.497Z,8.43
2018-06-24T03:00:38.541Z,8.36
2018-06-24T03:01:38.516Z,8.39
2018-06-24T03:02:38.643Z,8.37
2018-06-24T03:03:38.553Z,8.36
2018-06-24T03:04:38.696Z,8.4
2018-06-24T03:05:38.546Z,8.4
2018-06-24T03:06:38.488Z,8.36
2018-06-24T03:07:38.490Z,8.38
2018-06-24T03:08:38.511Z,8.38
2018-06-24T03:09:38.488Z,8.36
2018-06-24T03:10:38.526Z,8.47
2018-06-24T03:11:38.492Z,8.41
2018-06-24T03:12:38.501Z,8.41
2018-06-24T03:13:38.522Z,8.36
2018-06-24T03:14:38.521Z,8.41
2018-06-24T03:15:38.525Z,8.46
2018-06-24T03:16:38.554Z,8.46
2018-06-24T03:17:38.514Z,8.43
2018-06-24T03:18:38.510Z,8.46
2018-06-24T03:19:38.506Z,8.45
2018-06-24T03:20:38.507Z,8.46
2018-06-24T03:21:38.513Z,8.43
2018-06-24T03:22:38.494Z,8.43
2018-06-24T03:23:38.517Z,8.35
2018-06-24T03:24:38.533Z,8.36
2018-06-24T03:25:38.537Z,8.45
2018-06-24T03:26:38.632Z,8.38
2018-06-24T03:27:38.712Z,8.45
2018-06-24T03:28:38.524Z,8.46
2018-06-24T03:29:38.533Z,8.44
2018-06-24T03:30:38.524Z,8.42
2018-06-24T03:31:38.552Z,8.38
2018-06-24T03:32:38.506Z,8.31
2018-06-24T03:33:38.511Z,8.4
2018-06-24T03:34:38.508Z,8.46
2018-06-24T03:35:38.511Z,8.48
2018-06-24T03:36:38.517Z,8.38
2018-06-24T03:37:38.511Z,8.38
2018-06-24T03:38:38.519Z,8.35
2018-06-24T03:39:38.548Z,8.4
2018-06-24T03:40:38.514Z,8.37
2018-06-24T03:41:38.516Z,8.47
2018-06-24T03:42:38.520Z,8.46
2018-06-24T03:43:38.503Z,8.37
2018-06-24T03:44:38.536Z,8.31
2018-06-24T03:45:38.515Z,8.4
2018-06-24T03:46:38.543Z,8.3
2018-06-24T03:47:38.509Z,8.36
2018-06-24T03:48:38.506Z,8.4
2018-06-24T03:49:38.627Z,8.38
2018-06-24T03:50:38.532Z,8.46
2018-06-24T03:51:38.725Z,8.44
2018-06-24T03:52:38.606Z,8.36
2018-06-24T03:53:38.551Z,8.39
2018-06-24T03:54:38.514Z,8.33
2018-06-24T03:55:38.669Z,8.31
2018-06-24T03:56:38.540Z,8.39
2018-06-24T03:57:38.525Z,8.44
2018-06-24T03:58:38.686Z,8.43
2018-06-24T03:59:38.552Z,8.41
2018-06-24T04:00:38.518Z,8.39
2018-06-24T04:01:38.613Z,8.43
2018-06-24T04:02:38.713Z,8.42
2018-06-24T04:03:38.567Z,8.31
2018-06-24T04:04:38.842Z,8.31
2018-06-24T04:05:38.544Z,8.38
2018-06-24T04:06:38.597Z,8.3
2018-06-24T04:07:38.529Z,8.33
2018-06-24T04:08:38.581Z,8.37
2018-06-24T04:09:38.623Z,8.41
2018-06-24T04:10:38.551Z,8.4
2018-06-24T04:11:38.665Z,8.35
2018-06-24T04:12:38.591Z,8.45
2018-06-24T04:13:38.599Z,8.47
2018-06-24T04:14:38.549Z,8.45
2018-06-24T04:15:38.549Z,8.45
2018-06-24T04:16:38.563Z,8.48
2018-06-24T04:17:38.571Z,8.47
2018-06-24T04:18:38.543Z,8.5
2018-06-24T04:19:38.547Z,8.53
2018-06-24T04:20:38.532Z,8.45
2018-06-24T04:21:38.533Z,8.38
2018-06-24T04:22:38.550Z,8.4
2018-06-24T04:23:38.530Z,8.41
2018-06-24T04:24:38.521Z,8.38
2018-06-24T04:25:38.858Z,8.37
2018-06-24T04:26:38.526Z,8.47
2018-06-24T04:27:38.546Z,8.5
2018-06-24T04:28:38.589Z,8.55
2018-06-24T04:29:38.530Z,8.46
2018-06-24T04:30:38.528Z,8.53
2018-06-24T04:31:38.545Z,8.5
2018-06-24T04:32:38.570Z,8.45
2018-06-24T04:33:38.568Z,8.56
2018-06-24T04:34:38.616Z,8.62
2018-06-24T04:35:38.638Z,8.6
2018-06-24T04:36:38.684Z,8.53
2018-06-24T04:37:38.578Z,8.46
2018-06-24T04:38:38.564Z,8.56
2018-06-24T04:39:38.547Z,8.5
2018-06-24T04:40:38.535Z,8.57
2018-06-24T04:41:38.582Z,8.55
2018-06-24T04:42:38.598Z,8.55
2018-06-24T04:43:38.544Z,8.56
2018-06-24T04:44:38.590Z,8.56
2018-06-24T04:45:38.559Z,8.61
2018-06-24T04:46:38.577Z,8.6
2018-06-24T04:47:38.604Z,8.61
2018-06-24T04:48:38.576Z,8.65
2018-06-24T04:49:38.553Z,8.62
2018-06-24T04:50:38.559Z,8.59
2018-06-24T04:51:38.914Z,8.57
2018-06-24T04:52:38.734Z,8.64
2018-06-24T04:53:38.553Z,8.74
2018-06-24T04:54:38.578Z,8.68
2018-06-24T04:55:38.592Z,8.63
2018-06-24T04:56:38.719Z,8.65
2018-06-24T04:57:38.579Z,8.71
2018-06-24T04:58:38.556Z,8.72
2018-06-24T04:59:38.586Z,8.63
2018-06-24T05:00:38.601Z,8.59
2018-06-24T05:01:38.548Z,8.61
2018-06-24T05:02:38.559Z,8.67
2018-06-24T05:03:38.632Z,8.77
2018-06-24T05:04:38.569Z,8.75
2018-06-24T05:05:38.618Z,8.74
2018-06-24T05:06:38.560Z,8.71
2018-06-24T05:07:38.644Z,8.77
2018-06-24T05:08:38.564Z,8.7
2018-06-24T05:09:38.555Z,8.78
2018-06-24T05:10:38.643Z,8.75
2018-06-24T05:11:38.612Z,8.76
2018-06-24T05:12:38.816Z,8.7
2018-06-24T05:13:38.670Z,8.78
2018-06-24T05:14:38.641Z,8.77
2018-06-24T05:15:38.715Z,8.86
2018-06-24T05:16:38.629Z,8.77
2018-06-24T05:17:38.704Z,8.75
2018-06-24T05:18:38.628Z,8.75
2018-06-24T05:19:38.603Z,8.82
2018-06-24T05:20:38.625Z,8.88
2018-06-24T05:21:38.585Z,8.85
2018-06-24T05:22:38.678Z,8.79
2018-06-24T05:23:38.577Z,8.88
2018-06-24T05:24:38.634Z,8.91
2018-06-24T05:25:38.603Z,8.85
2018-06-24T05:26:38.621Z,8.9
2018-06-24T05:27:39.502Z,8.91
2018-06-24T05:28:38.568Z,8.9
2018-06-24T05:29:38.570Z,8.92
2018-06-24T05:30:38.570Z,8.98
2018-06-24T05:31:38.611Z,8.94
2018-06-24T05:32:38.605Z,8.98
2018-06-24T05:33:38.581Z,8.99
2018-06-24T05:34:38.589Z,8.93
2018-06-24T05:35:38.771Z,8.97
2018-06-24T05:36:38.640Z,8.97
2018-06-24T05:37:38.617Z,9.06
2018-06-24T05:38:38.577Z,9
2018-06-24T05:39:38.598Z,9.05
2018-06-24T05:40:38.614Z,9.02
2018-06-24T05:41:38.643Z,9.06
2018-06-24T05:42:38.590Z,9.01
2018-06-24T05:43:38.608Z,8.97
2018-06-24T05:44:38.607Z,9.03
2018-06-24T05:45:38.596Z,8.98
2018-06-24T05:46:38.581Z,9.01
2018-06-24T05:47:38.604Z,9.03
2018-06-24T05:48:38.591Z,9
2018-06-24T05:49:38.563Z,9.02
2018-06-24T05:50:38.796Z,9.02
2018-06-24T05:51:38.599Z,8.98
2018-06-24T05:52:38.643Z,9.07
2018-06-24T05:53:38.617Z,9.08
2018-06-24T05:54:38.621Z,9.02
2018-06-24T05:55:38.606Z,8.99
2018-06-24T05:56:38.964Z,9.01
2018-06-24T05:57:38.619Z,9.06
2018-06-24T05:58:38.806Z,9.08
2018-06-24T05:59:38.626Z,9.09
2018-06-24T06:00:38.610Z,9.05
2018-06-24T06:01:38.663Z,9.12
2018-06-24T06:02:38.610Z,9.09
2018-06-24T06:03:38.609Z,9.09
2018-06-24T06:04:38.710Z,9.05
2018-06-24T06:05:38.638Z,9.12
2018-06-24T06:06:38.636Z,9.1
2018-06-24T06:07:38.613Z,9.06
2018-06-24T06:08:38.791Z,9.14
2018-06-24T06:09:38.659Z,9.14
2018-06-24T06:10:38.635Z,9.14
2018-06-24T06:11:38.610Z,9.14
2018-06-24T06:12:38.812Z,9.14
2018-06-24T06:13:38.604Z,9.12
2018-06-24T06:14:38.621Z,9.15
2018-06-24T06:15:38.638Z,9.12
2018-06-24T06:16:38.588Z,9.15
2018-06-24T06:17:38.708Z,9.19
2018-06-24T06:18:38.607Z,9.22
2018-06-24T06:19:38.623Z,9.18
2018-06-24T06:20:38.606Z,9.18
2018-06-24T06:21:38.913Z,9.16
2018-06-24T06:22:38.607Z,9.15
2018-06-24T06:23:38.585Z,9.19
2018-06-24T06:24:38.707Z,9.21
2018-06-24T06:25:38.625Z,9.16
2018-06-24T06:26:38.747Z,9.15
2018-06-24T06:27:38.605Z,9.17
2018-06-24T06:28:38.653Z,9.12
2018-06-24T06:29:38.646Z,9.12
2018-06-24T06:30:38.659Z,9.09
2018-06-24T06:31:38.605Z,9.08
2018-06-24T06:32:38.622Z,9.12
2018-06-24T06:33:39.114Z,9.17
2018-06-24T06:34:38.666Z,9.18
2018-06-24T06:35:38.632Z,9.2
2018-06-24T06:36:38.650Z,9.16
2018-06-24T06:37:38.683Z,9.2
2018-06-24T06:38:38.630Z,9.19
2018-06-24T06:39:38.615Z,9.15
2018-06-24T06:40:38.652Z,9.19
2018-06-24T06:41:38.630Z,9.11
2018-06-24T06:42:38.692Z,9.11
2018-06-24T06:43:38.646Z,9.16
2018-06-24T06:44:38.616Z,9.16
2018-06-24T06:45:40.803Z,9.13
2018-06-24T06:46:38.626Z,9.15
2018-06-24T06:47:38.619Z,9.12
2018-06-24T06:48:38.587Z,9.08
2018-06-24T06:49:38.610Z,9.09
2018-06-24T06:50:38.631Z,9.13
2018-06-24T06:51:38.639Z,9.13
2018-06-24T06:52:38.613Z,9.09
2018-06-24T06:53:38.636Z,9.09
2018-06-24T06:54:38.618Z,9.04
2018-06-24T06:55:38.619Z,9.03
2018-06-24T06:56:38.619Z,9.08
2018-06-24T06:57:38.622Z,8.92
2018-06-24T06:58:38.655Z,8.95
2018-06-24T06:59:38.641Z,9.02
2018-06-24T07:00:38.647Z,9.04
2018-06-24T07:01:38.671Z,9
2018-06-24T07:02:38.812Z,8.87
2018-06-24T07:03:38.767Z,8.88
2018-06-24T07:04:38.640Z,8.85
2018-06-24T07:05:39.685Z,8.94
2018-06-24T07:06:38.698Z,8.92
2018-06-24T07:07:38.791Z,8.93
2018-06-24T07:08:38.639Z,8.95
2018-06-24T07:09:38.633Z,8.92
2018-06-24T07:10:38.645Z,8.95
2018-06-24T07:11:38.781Z,8.86
2018-06-24T07:12:38.848Z,8.86
2018-06-24T07:13:38.755Z,8.84
2018-06-24T07:14:39.036Z,8.91
2018-06-24T07:15:38.759Z,8.93
2018-06-24T07:16:38.675Z,8.93
2018-06-24T07:17:38.707Z,8.84
2018-06-24T07:18:38.693Z,8.85
2018-06-24T07:19:38.734Z,8.88
2018-06-24T07:20:38.684Z,8.9
2018-06-24T07:21:38.681Z,8.95
2018-06-24T07:22:38.721Z,8.94
2018-06-24T07:23:38.696Z,8.93
2018-06-24T07:24:38.735Z,8.94
2018-06-24T07:25:38.742Z,8.96
2018-06-24T07:26:38.743Z,8.91
2018-06-24T07:27:39.103Z,8.95
2018-06-24T07:28:38.770Z,8.92
2018-06-24T07:29:38.745Z,8.94
2018-06-24T07:30:38.747Z,8.94
2018-06-24T07:31:38.779Z,8.92
2018-06-24T07:32:38.753Z,8.97
2018-06-24T07:33:40.243Z,8.82
2018-06-24T07:34:38.859Z,8.91
2018-06-24T07:35:38.828Z,8.86
2018-06-24T07:36:38.785Z,8.98
2018-06-24T07:37:38.767Z,8.95
2018-06-24T07:38:39.203Z,8.91
2018-06-24T07:39:38.991Z,8.91
2018-06-24T07:40:38.844Z,8.94
2018-06-24T07:41:38.822Z,8.93
2018-06-24T07:42:38.850Z,8.93
2018-06-24T07:43:38.847Z,8.95
2018-06-24T07:44:38.811Z,8.95
2018-06-24T07:45:38.828Z,8.97
2018-06-24T07:46:38.824Z,9.02
2018-06-24T07:47:39.010Z,8.98
2018-06-24T07:48:38.831Z,9
2018-06-24T07:49:38.845Z,8.96
2018-06-24T07:50:38.872Z,8.94
2018-06-24T07:51:38.905Z,8.95
2018-06-24T07:52:38.841Z,8.89
2018-06-24T07:53:38.892Z,8.96
2018-06-24T07:54:38.943Z,9.01
2018-06-24T07:55:38.918Z,9
2018-06-24T07:56:38.910Z,8.99
2018-06-24T07:57:38.945Z,8.9
2018-06-24T07:58:38.813Z,8.93
2018-06-24T07:59:38.810Z,8.97
2018-06-24T08:00:38.817Z,9.08
2018-06-24T08:01:38.810Z,9.03
2018-06-24T08:02:38.831Z,8.97
2018-06-24T08:03:38.813Z,9.05
2018-06-24T08:04:38.835Z,9.04
2018-06-24T08:05:38.833Z,9.15
2018-06-24T08:06:38.825Z,9.23
2018-06-24T08:07:38.838Z,9.22
2018-06-24T08:08:38.845Z,9.18
2018-06-24T08:09:38.925Z,9.27
2018-06-24T08:10:38.845Z,9.24
2018-06-24T08:11:38.842Z,9.28
2018-06-24T08:12:38.856Z,9.17
2018-06-24T08:13:40.098Z,9.17
2018-06-24T08:14:38.873Z,9.16
2018-06-24T08:15:39.007Z,9.29
2018-06-24T08:16:38.944Z,9.23
2018-06-24T08:17:38.994Z,9.26
2018-06-24T08:18:38.972Z,9.21
2018-06-24T08:19:38.983Z,9.22
2018-06-24T08:20:38.914Z,9.26
2018-06-24T08:21:38.801Z,9.26
2018-06-24T08:22:39.208Z,9.32
2018-06-24T08:23:38.857Z,9.27
2018-06-24T08:24:38.884Z,9.24
2018-06-24T08:25:38.817Z,9.21
2018-06-24T08:26:39.005Z,9.28
2018-06-24T08:27:38.843Z,9.3
2018-06-24T08:28:38.809Z,9.33
2018-06-24T08:29:38.912Z,9.38
2018-06-24T08:30:38.865Z,9.34
2018-06-24T08:31:39.538Z,9.32
2018-06-24T08:32:38.966Z,9.35
2018-06-24T08:33:38.848Z,9.29
2018-06-24T08:34:38.689Z,9.33
2018-06-24T08:35:40.068Z,9.31
2018-06-24T08:36:38.882Z,9.29
2018-06-24T08:37:38.718Z,9.31
2018-06-24T08:38:43.015Z,9.36
2018-06-24T08:39:39.000Z,9.36
2018-06-24T08:40:38.693Z,9.38
2018-06-24T08:41:38.950Z,9.39
2018-06-24T08:42:39.048Z,9.38
2018-06-24T08:43:39.009Z,9.22
2018-06-24T08:44:39.079Z,9.27
2018-06-24T08:45:38.708Z,9.2
2018-06-24T08:46:39.358Z,9.22
2018-06-24T08:47:39.219Z,9.24
2018-06-24T08:48:38.707Z,9.05
2018-06-24T08:49:38.720Z,8.98
2018-06-24T08:50:39.015Z,8.87
2018-06-24T08:51:38.717Z,8.84
2018-06-24T08:52:39.014Z,8.81
2018-06-24T08:53:39.062Z,8.86
2018-06-24T08:54:39.028Z,8.91
2018-06-24T08:55:38.696Z,8.78
2018-06-24T08:56:39.052Z,8.82
2018-06-24T08:57:39.050Z,8.93
2018-06-24T08:58:39.072Z,8.95
2018-06-24T08:59:38.711Z,9
2018-06-24T09:00:39.190Z,9.06
2018-06-24T09:01:38.854Z,9.06
2018-06-24T09:02:38.849Z,9.07
2018-06-24T09:03:38.694Z,9.12
2018-06-24T09:04:38.759Z,9.24
2018-06-24T09:05:38.871Z,9.28
2018-06-24T09:06:38.888Z,9.15
2018-06-24T09:07:38.893Z,9.13
2018-06-24T09:08:38.803Z,9.15
2018-06-24T09:09:38.708Z,9.05
2018-06-24T09:10:38.711Z,9.06
2018-06-24T09:11:38.811Z,9.08
2018-06-24T09:12:38.723Z,8.96
2018-06-24T09:13:39.233Z,9.03
2018-06-24T09:14:39.854Z,9.08
2018-06-24T09:15:41.359Z,9.1
2018-06-24T09:16:38.775Z,9.14
2018-06-24T09:17:38.876Z,9.1
2018-06-24T09:18:38.804Z,9.15
2018-06-24T09:19:38.886Z,9.16
2018-06-24T09:20:38.893Z,9.27
2018-06-24T09:21:38.870Z,9.29
2018-06-24T09:22:38.898Z,9.31
2018-06-24T09:23:38.897Z,9.32
2018-06-24T09:24:38.902Z,9.25
2018-06-24T09:25:38.909Z,9.28
2018-06-24T09:26:40.967Z,9.19
2018-06-24T09:27:39.696Z,9.29
2018-06-24T09:28:38.726Z,9.25
2018-06-24T09:29:38.942Z,9.14
2018-06-24T09:30:38.943Z,9.04
2018-06-24T09:31:38.750Z,9.16
2018-06-24T09:32:38.922Z,9.16
2018-06-24T09:33:38.864Z,9.31
2018-06-24T09:34:38.733Z,9.3
2018-06-24T09:35:38.883Z,8.94
2018-06-24T09:36:38.729Z,8.59
2018-06-24T09:37:38.778Z,8.59
2018-06-24T09:39:38.904Z,8.57
2018-06-24T09:40:38.775Z,8.51
2018-06-24T09:41:38.921Z,8.6
2018-06-24T09:42:38.864Z,8.83
2018-06-24T09:43:38.816Z,8.8
2018-06-24T09:44:38.832Z,8.81
2018-06-24T09:45:38.743Z,8.87
2018-06-24T09:46:38.793Z,8.9
2018-06-24T09:47:38.873Z,8.89
2018-06-24T09:48:38.730Z,8.85
2018-06-24T09:49:38.846Z,8.84
2018-06-24T09:50:38.861Z,8.83
2018-06-24T09:51:38.827Z,8.76
2018-06-24T09:52:38.892Z,8.71
2018-06-24T09:53:38.799Z,8.7
2018-06-24T09:54:38.849Z,8.79
2018-06-24T09:55:38.782Z,8.55
2018-06-24T09:56:38.889Z,8.48
2018-06-24T09:57:38.745Z,8.63
2018-06-24T09:58:38.812Z,8.59
2018-06-24T09:59:38.856Z,8.79
2018-06-24T10:00:39.466Z,8.68
2018-06-24T10:01:38.820Z,8.71
2018-06-24T10:02:38.848Z,8.8
2018-06-24T10:03:38.859Z,8.74
2018-06-24T10:04:39.704Z,8.79
2018-06-24T10:05:38.987Z,8.78
2018-06-24T10:06:38.838Z,8.7
2018-06-24T10:07:38.790Z,8.71
2018-06-24T10:08:38.898Z,8.76
2018-06-24T10:09:38.821Z,8.81
2018-06-24T10:10:38.863Z,8.87
2018-06-24T10:11:39.019Z,8.87
2018-06-24T10:12:38.928Z,8.93
2018-06-24T10:13:38.803Z,8.99
2018-06-24T10:14:39.094Z,8.9
2018-06-24T10:15:38.986Z,8.97
2018-06-24T10:16:38.932Z,8.93
2018-06-24T10:17:38.971Z,9.02
2018-06-24T10:18:39.602Z,9.08
2018-06-24T10:19:46.205Z,9.03
2018-06-24T10:20:46.296Z,8.8
2018-06-24T10:21:38.918Z,8.7
2018-06-24T10:22:38.887Z,8.83
2018-06-24T10:23:38.891Z,8.89
2018-06-24T10:24:39.736Z,8.92
2018-06-24T10:25:38.999Z,8.94
2018-06-24T10:26:39.162Z,8.93
2018-06-24T10:27:39.073Z,8.96
2018-06-24T10:28:38.984Z,8.96
2018-06-24T10:29:38.988Z,8.99
2018-06-24T10:30:38.923Z,8.98
2018-06-24T10:31:39.026Z,9.05
2018-06-24T10:32:39.076Z,8.97
2018-06-24T10:33:38.922Z,8.93
2018-06-24T10:34:39.038Z,8.94
2018-06-24T10:35:39.081Z,8.83
2018-06-24T10:36:38.974Z,9
2018-06-24T10:37:38.886Z,8.97
2018-06-24T10:38:39.006Z,9.12
2018-06-24T10:39:39.114Z,8.98
2018-06-24T10:40:38.920Z,8.98
2018-06-24T10:41:38.969Z,8.86
2018-06-24T10:42:38.904Z,8.91
2018-06-24T10:43:39.037Z,8.88
2018-06-24T10:44:38.925Z,8.81
2018-06-24T10:45:38.910Z,8.81
2018-06-24T10:46:39.153Z,8.8
2018-06-24T10:47:38.964Z,8.81
2018-06-24T10:48:39.019Z,8.82
2018-06-24T10:49:39.012Z,8.75
2018-06-24T10:50:38.929Z,8.56
2018-06-24T10:51:38.932Z,8.64
2018-06-24T10:52:38.959Z,8.69
2018-06-24T10:53:38.936Z,8.66
2018-06-24T10:54:38.958Z,8.6
2018-06-24T10:55:38.978Z,8.6
2018-06-24T10:56:38.999Z,8.84
2018-06-24T10:57:38.941Z,8.92
2018-06-24T10:58:39.096Z,8.8
2018-06-24T10:59:38.993Z,8.89
2018-06-24T11:00:38.842Z,8.76
2018-06-24T11:01:38.892Z,8.84
2018-06-24T11:02:39.017Z,8.83
2018-06-24T11:03:38.853Z,8.85
2018-06-24T11:04:38.807Z,8.88
2018-06-24T11:05:38.889Z,8.92
2018-06-24T11:06:38.781Z,8.79
2018-06-24T11:07:38.818Z,8.86
2018-06-24T11:08:39.044Z,8.97
2018-06-24T11:09:38.932Z,8.86
2018-06-24T11:10:38.817Z,8.88
2018-06-24T11:11:38.929Z,8.93
2018-06-24T11:12:38.804Z,8.96
2018-06-24T11:13:38.789Z,8.94
2018-06-24T11:14:38.850Z,8.88
2018-06-24T11:15:38.794Z,8.73
2018-06-24T11:16:38.783Z,8.73
2018-06-24T11:17:39.994Z,8.8
2018-06-24T11:18:38.784Z,8.57
2018-06-24T11:19:38.773Z,8.5
2018-06-24T11:20:39.033Z,8.69
2018-06-24T11:21:38.804Z,8.45
2018-06-24T11:22:38.852Z,8.39
2018-06-24T11:23:38.942Z,8.51
2018-06-24T11:24:38.821Z,8.49
2018-06-24T11:25:38.805Z,8.41
2018-06-24T11:26:39.045Z,8.39
2018-06-24T11:27:38.797Z,8.5
2018-06-24T11:28:38.818Z,8.59
2018-06-24T11:29:39.091Z,8.59
2018-06-24T11:30:38.823Z,8.56
2018-06-24T11:31:38.802Z,8.55
2018-06-24T11:32:39.176Z,8.62
2018-06-24T11:33:38.793Z,8.61
2018-06-24T11:34:38.793Z,8.59
2018-06-24T11:35:38.912Z,8.62
2018-06-24T11:36:38.801Z,8.62
2018-06-24T11:37:38.799Z,8.64
2018-06-24T11:38:39.011Z,8.58
2018-06-24T11:39:38.915Z,8.65
2018-06-24T11:40:38.812Z,8.63
2018-06-24T11:41:39.990Z,8.62
2018-06-24T11:42:38.864Z,8.63
2018-06-24T11:43:38.888Z,8.48
2018-06-24T11:44:38.965Z,8.61
2018-06-24T11:45:38.822Z,8.7
2018-06-24T11:46:38.835Z,8.72
2018-06-24T11:47:38.962Z,8.72
2018-06-24T11:48:38.807Z,8.58
2018-06-24T11:49:38.833Z,8.57
2018-06-24T11:50:38.903Z,8.58
2018-06-24T11:51:38.817Z,8.59
2018-06-24T11:52:38.837Z,8.48
2018-06-24T11:53:38.957Z,8.47
2018-06-24T11:54:38.822Z,8.49
2018-06-24T11:55:38.822Z,8.4
2018-06-24T11:56:39.285Z,8.43
2018-06-24T11:57:38.862Z,8.42
2018-06-24T11:58:38.876Z,8.37
2018-06-24T11:59:39.301Z,8.28
2018-06-24T12:00:38.880Z,8.3
2018-06-24T12:01:38.836Z,8.31
2018-06-24T12:02:39.462Z,8.33
2018-06-24T12:03:38.887Z,8.37
2018-06-24T12:04:38.842Z,8.23
2018-06-24T12:05:38.998Z,8.29
2018-06-24T12:06:38.809Z,8.34
2018-06-24T12:07:38.851Z,8.2
2018-06-24T12:08:39.299Z,8.22
2018-06-24T12:09:38.964Z,8.13
2018-06-24T12:10:38.834Z,8.22
2018-06-24T12:11:39.379Z,8.1
2018-06-24T12:12:38.849Z,8.2
2018-06-24T12:13:38.988Z,8.25
2018-06-24T12:14:39.388Z,8.14
2018-06-24T12:15:38.824Z,8.1
2018-06-24T12:16:38.935Z,8.16
2018-06-24T12:17:38.971Z,8.29
2018-06-24T12:18:38.877Z,8.35
2018-06-24T12:19:38.847Z,8.41
2018-06-24T12:20:38.992Z,8.43
2018-06-24T12:21:38.902Z,8.51
2018-06-24T12:22:38.851Z,8.2
2018-06-24T12:23:41.371Z,8.17
2018-06-24T12:24:38.840Z,8.29
2018-06-24T12:25:38.854Z,8.21
2018-06-24T12:26:38.996Z,8.18
2018-06-24T12:27:38.841Z,8.21
2018-06-24T12:28:38.876Z,8.22
2018-06-24T12:29:38.856Z,8.32
2018-06-24T12:30:39.333Z,8.36
2018-06-24T12:31:38.828Z,8.36
2018-06-24T12:32:39.085Z,8.39
2018-06-24T12:33:38.882Z,8.35
2018-06-24T12:34:38.854Z,8.25
2018-06-24T12:35:38.841Z,8.28
2018-06-24T12:36:38.852Z,8.28
2018-06-24T12:37:38.860Z,8.29
2018-06-24T12:38:39.019Z,8.24
2018-06-24T12:39:39.000Z,8.24
2018-06-24T12:40:38.890Z,8.14
2018-06-24T12:41:38.980Z,8.29
2018-06-24T12:42:38.878Z,8.31
2018-06-24T12:43:38.858Z,8.29
2018-06-24T12:44:39.043Z,8.31
2018-06-24T12:45:38.868Z,8.17
2018-06-24T12:46:38.891Z,8.41
2018-06-24T12:47:38.884Z,8.27
2018-06-24T12:48:39.054Z,8.38
2018-06-24T12:49:38.879Z,8.43
2018-06-24T12:50:39.042Z,8.39
2018-06-24T12:51:38.940Z,8.49
2018-06-24T12:52:39.352Z,8.39
2018-06-24T12:53:39.035Z,8.37
2018-06-24T12:54:38.958Z,8.31
2018-06-24T12:55:38.900Z,8.29
2018-06-24T12:56:38.865Z,8.36
2018-06-24T12:57:38.943Z,8.29
2018-06-24T12:58:39.444Z,8.49
2018-06-24T12:59:41.974Z,8.43
2018-06-24T13:00:44.320Z,8.43
2018-06-24T13:01:38.921Z,8.44
2018-06-24T13:02:39.016Z,8.4
2018-06-24T13:03:38.988Z,8.4
2018-06-24T13:04:38.909Z,8.4
2018-06-24T13:05:39.138Z,8.47
2018-06-24T13:06:39.316Z,8.35
2018-06-24T13:07:38.874Z,8.33
2018-06-24T13:08:39.027Z,8.28
2018-06-24T13:09:38.894Z,8.42
2018-06-24T13:10:39.099Z,8.25
2018-06-24T13:11:38.937Z,8.35
2018-06-24T13:12:39.008Z,8.3
2018-06-24T13:13:38.911Z,8.29
2018-06-24T13:14:38.957Z,8.36
2018-06-24T13:15:38.978Z,8.37
2018-06-24T13:16:38.940Z,8.29
2018-06-24T13:17:41.012Z,8.27
2018-06-24T13:18:38.928Z,8.32
2018-06-24T13:19:38.935Z,8.27
2018-06-24T13:20:39.010Z,8.35
2018-06-24T13:21:38.895Z,8.39
2018-06-24T13:22:38.963Z,8.36